sensor_id;sensor_type;location;lat;lon;timestamp;temperature;humidity
78315;SHT31;68596;52.080;4.662;2024-02-14T00:01:46;10.74;79.66
78315;SHT31;68596;52.080;4.662;2024-02-14T00:04:30;10.77;79.62
78315;SHT31;68596;52.080;4.662;2024-02-14T00:07:15;10.79;79.54
78315;SHT31;68596;52.080;4.662;2024-02-14T00:09:59;10.79;79.61
78315;SHT31;68596;52.080;4.662;2024-02-14T00:12:43;10.83;79.55
78315;SHT31;68596;52.080;4.662;2024-02-14T00:15:28;10.83;79.62
78315;SHT31;68596;52.080;4.662;2024-02-14T00:18:14;10.84;79.69
78315;SHT31;68596;52.080;4.662;2024-02-14T00:20:59;10.83;79.79
78315;SHT31;68596;52.080;4.662;2024-02-14T00:23:43;10.84;79.94
78315;SHT31;68596;52.080;4.662;2024-02-14T00:26:27;10.84;80.01
78315;SHT31;68596;52.080;4.662;2024-02-14T00:29:12;10.89;79.95
78315;SHT31;68596;52.080;4.662;2024-02-14T00:31:56;10.90;80.10
78315;SHT31;68596;52.080;4.662;2024-02-14T00:34:40;10.90;80.12
78315;SHT31;68596;52.080;4.662;2024-02-14T00:37:24;10.90;80.17
78315;SHT31;68596;52.080;4.662;2024-02-14T00:40:09;10.94;80.11
78315;SHT31;68596;52.080;4.662;2024-02-14T00:42:55;10.94;80.20
78315;SHT31;68596;52.080;4.662;2024-02-14T00:45:39;10.93;80.27
78315;SHT31;68596;52.080;4.662;2024-02-14T00:48:23;10.96;80.32
78315;SHT31;68596;52.080;4.662;2024-02-14T00:51:07;10.97;80.42
78315;SHT31;68596;52.080;4.662;2024-02-14T00:53:52;11.04;80.29
78315;SHT31;68596;52.080;4.662;2024-02-14T00:56:36;11.06;80.26
78315;SHT31;68596;52.080;4.662;2024-02-14T00:59:20;11.07;80.26
78315;SHT31;68596;52.080;4.662;2024-02-14T01:02:04;11.08;80.30
78315;SHT31;68596;52.080;4.662;2024-02-14T01:04:48;11.10;80.30
78315;SHT31;68596;52.080;4.662;2024-02-14T01:07:32;11.08;80.27
78315;SHT31;68596;52.080;4.662;2024-02-14T01:10:16;11.14;80.31
78315;SHT31;68596;52.080;4.662;2024-02-14T01:13:02;11.17;80.35
78315;SHT31;68596;52.080;4.662;2024-02-14T01:15:46;11.15;80.33
78315;SHT31;68596;52.080;4.662;2024-02-14T01:18:31;11.18;80.31
78315;SHT31;68596;52.080;4.662;2024-02-14T01:21:15;11.21;80.31
78315;SHT31;68596;52.080;4.662;2024-02-14T01:23:59;11.18;80.35
78315;SHT31;68596;52.080;4.662;2024-02-14T01:26:43;11.23;80.45
78315;SHT31;68596;52.080;4.662;2024-02-14T01:29:27;11.24;80.45
78315;SHT31;68596;52.080;4.662;2024-02-14T01:32:11;11.25;80.42
78315;SHT31;68596;52.080;4.662;2024-02-14T01:34:55;11.27;80.40
78315;SHT31;68596;52.080;4.662;2024-02-14T01:37:39;11.31;80.41
78315;SHT31;68596;52.080;4.662;2024-02-14T01:40:24;11.32;80.46
78315;SHT31;68596;52.080;4.662;2024-02-14T01:43:09;11.34;80.51
78315;SHT31;68596;52.080;4.662;2024-02-14T01:45:54;11.34;80.50
78315;SHT31;68596;52.080;4.662;2024-02-14T01:48:39;11.37;80.48
78315;SHT31;68596;52.080;4.662;2024-02-14T01:51:25;11.38;80.59
78315;SHT31;68596;52.080;4.662;2024-02-14T01:54:12;11.39;80.51
78315;SHT31;68596;52.080;4.662;2024-02-14T01:56:57;11.41;80.59
78315;SHT31;68596;52.080;4.662;2024-02-14T01:59:42;11.39;80.66
78315;SHT31;68596;52.080;4.662;2024-02-14T02:02:27;11.41;80.67
78315;SHT31;68596;52.080;4.662;2024-02-14T02:05:12;11.42;80.70
78315;SHT31;68596;52.080;4.662;2024-02-14T02:07:57;11.39;80.61
78315;SHT31;68596;52.080;4.662;2024-02-14T02:10:41;11.44;80.74
78315;SHT31;68596;52.080;4.662;2024-02-14T02:13:26;11.45;80.66
78315;SHT31;68596;52.080;4.662;2024-02-14T02:16:10;11.47;80.61
78315;SHT31;68596;52.080;4.662;2024-02-14T02:18:55;11.47;80.54
78315;SHT31;68596;52.080;4.662;2024-02-14T02:21:39;11.50;80.61
78315;SHT31;68596;52.080;4.662;2024-02-14T02:24:23;11.50;80.73
78315;SHT31;68596;52.080;4.662;2024-02-14T02:27:07;11.47;80.69
78315;SHT31;68596;52.080;4.662;2024-02-14T02:29:51;11.50;80.74
78315;SHT31;68596;52.080;4.662;2024-02-14T02:32:36;11.51;80.74
78315;SHT31;68596;52.080;4.662;2024-02-14T02:35:20;11.51;80.77
78315;SHT31;68596;52.080;4.662;2024-02-14T02:38:04;11.52;80.79
78315;SHT31;68596;52.080;4.662;2024-02-14T02:40:49;11.57;80.74
78315;SHT31;68596;52.080;4.662;2024-02-14T02:43:33;11.57;80.86
78315;SHT31;68596;52.080;4.662;2024-02-14T02:46:18;11.54;80.94
78315;SHT31;68596;52.080;4.662;2024-02-14T02:49:02;11.57;81.01
78315;SHT31;68596;52.080;4.662;2024-02-14T02:51:46;11.59;80.97
78315;SHT31;68596;52.080;4.662;2024-02-14T02:54:30;11.58;81.02
78315;SHT31;68596;52.080;4.662;2024-02-14T02:57:15;11.62;81.06
78315;SHT31;68596;52.080;4.662;2024-02-14T02:59:59;11.59;81.18
78315;SHT31;68596;52.080;4.662;2024-02-14T03:02:44;11.61;81.29
78315;SHT31;68596;52.080;4.662;2024-02-14T03:05:31;11.61;81.28
78315;SHT31;68596;52.080;4.662;2024-02-14T03:08:17;11.61;81.43
78315;SHT31;68596;52.080;4.662;2024-02-14T03:11:05;11.64;81.45
78315;SHT31;68596;52.080;4.662;2024-02-14T03:13:50;11.65;81.50
78315;SHT31;68596;52.080;4.662;2024-02-14T03:16:34;11.67;81.65
78315;SHT31;68596;52.080;4.662;2024-02-14T03:19:18;11.65;81.86
78315;SHT31;68596;52.080;4.662;2024-02-14T03:22:02;11.72;81.85
78315;SHT31;68596;52.080;4.662;2024-02-14T03:24:49;11.71;81.82
78315;SHT31;68596;52.080;4.662;2024-02-14T03:27:33;11.71;81.83
78315;SHT31;68596;52.080;4.662;2024-02-14T03:30:20;11.74;81.90
78315;SHT31;68596;52.080;4.662;2024-02-14T03:33:04;11.74;81.91
78315;SHT31;68596;52.080;4.662;2024-02-14T03:35:48;11.78;81.92
78315;SHT31;68596;52.080;4.662;2024-02-14T03:38:32;11.79;81.96
78315;SHT31;68596;52.080;4.662;2024-02-14T03:41:17;11.83;81.87
78315;SHT31;68596;52.080;4.662;2024-02-14T03:44:01;11.86;81.82
78315;SHT31;68596;52.080;4.662;2024-02-14T03:46:47;11.86;81.82
78315;SHT31;68596;52.080;4.662;2024-02-14T03:49:32;11.88;81.81
78315;SHT31;68596;52.080;4.662;2024-02-14T03:52:16;11.90;81.78
78315;SHT31;68596;52.080;4.662;2024-02-14T03:55:00;11.93;81.75
78315;SHT31;68596;52.080;4.662;2024-02-14T03:57:45;11.95;81.77
78315;SHT31;68596;52.080;4.662;2024-02-14T04:00:31;11.98;81.77
78315;SHT31;68596;52.080;4.662;2024-02-14T04:03:15;11.96;81.89
78315;SHT31;68596;52.080;4.662;2024-02-14T04:05:59;11.96;81.80
78315;SHT31;68596;52.080;4.662;2024-02-14T04:08:43;11.98;81.91
78315;SHT31;68596;52.080;4.662;2024-02-14T04:11:27;12.02;81.82
78315;SHT31;68596;52.080;4.662;2024-02-14T04:14:12;12.05;81.87
78315;SHT31;68596;52.080;4.662;2024-02-14T04:16:56;12.03;81.82
78315;SHT31;68596;52.080;4.662;2024-02-14T04:19:40;12.03;81.89
78315;SHT31;68596;52.080;4.662;2024-02-14T04:22:25;12.05;81.87
78315;SHT31;68596;52.080;4.662;2024-02-14T04:25:09;12.05;81.89
78315;SHT31;68596;52.080;4.662;2024-02-14T04:27:53;12.09;81.84
78315;SHT31;68596;52.080;4.662;2024-02-14T04:30:37;12.09;81.95
78315;SHT31;68596;52.080;4.662;2024-02-14T04:33:22;12.12;81.90
78315;SHT31;68596;52.080;4.662;2024-02-14T04:36:07;12.12;81.88
78315;SHT31;68596;52.080;4.662;2024-02-14T04:38:51;12.15;81.80
78315;SHT31;68596;52.080;4.662;2024-02-14T04:41:39;12.19;81.67
78315;SHT31;68596;52.080;4.662;2024-02-14T04:44:23;12.19;81.74
78315;SHT31;68596;52.080;4.662;2024-02-14T04:47:07;12.16;81.77
78315;SHT31;68596;52.080;4.662;2024-02-14T04:49:53;12.22;81.67
78315;SHT31;68596;52.080;4.662;2024-02-14T04:52:37;12.25;81.79
78315;SHT31;68596;52.080;4.662;2024-02-14T04:55:22;12.23;81.74
78315;SHT31;68596;52.080;4.662;2024-02-14T04:58:06;12.28;81.71
78315;SHT31;68596;52.080;4.662;2024-02-14T05:00:50;12.25;81.68
78315;SHT31;68596;52.080;4.662;2024-02-14T05:03:34;12.32;81.61
78315;SHT31;68596;52.080;4.662;2024-02-14T05:06:20;12.29;81.60
78315;SHT31;68596;52.080;4.662;2024-02-14T05:09:05;12.30;81.66
78315;SHT31;68596;52.080;4.662;2024-02-14T05:11:49;12.26;81.74
78315;SHT31;68596;52.080;4.662;2024-02-14T05:14:37;12.26;81.81
78315;SHT31;68596;52.080;4.662;2024-02-14T05:17:21;12.28;81.77
78315;SHT31;68596;52.080;4.662;2024-02-14T05:20:07;12.28;81.80
78315;SHT31;68596;52.080;4.662;2024-02-14T05:22:55;12.29;81.80
78315;SHT31;68596;52.080;4.662;2024-02-14T05:25:39;12.30;81.86
78315;SHT31;68596;52.080;4.662;2024-02-14T05:28:23;12.30;81.79
78315;SHT31;68596;52.080;4.662;2024-02-14T05:31:07;12.34;81.76
78315;SHT31;68596;52.080;4.662;2024-02-14T05:33:51;12.37;81.69
78315;SHT31;68596;52.080;4.662;2024-02-14T05:36:35;12.37;81.70
78315;SHT31;68596;52.080;4.662;2024-02-14T05:39:20;12.37;81.73
78315;SHT31;68596;52.080;4.662;2024-02-14T05:42:04;12.39;81.74
78315;SHT31;68596;52.080;4.662;2024-02-14T05:44:50;12.41;81.67
78315;SHT31;68596;52.080;4.662;2024-02-14T05:47:36;12.43;81.69
78315;SHT31;68596;52.080;4.662;2024-02-14T05:50:20;12.46;81.64
78315;SHT31;68596;52.080;4.662;2024-02-14T05:53:04;12.43;81.74
78315;SHT31;68596;52.080;4.662;2024-02-14T05:55:48;12.47;81.78
78315;SHT31;68596;52.080;4.662;2024-02-14T05:58:32;12.47;81.74
78315;SHT31;68596;52.080;4.662;2024-02-14T06:01:16;12.46;81.74
78315;SHT31;68596;52.080;4.662;2024-02-14T06:04:00;12.44;81.65
78315;SHT31;68596;52.080;4.662;2024-02-14T06:06:44;12.41;81.65
78315;SHT31;68596;52.080;4.662;2024-02-14T06:09:28;12.47;81.58
78315;SHT31;68596;52.080;4.662;2024-02-14T06:12:13;12.44;81.78
78315;SHT31;68596;52.080;4.662;2024-02-14T06:14:57;12.47;81.71
78315;SHT31;68596;52.080;4.662;2024-02-14T06:17:41;12.46;81.70
78315;SHT31;68596;52.080;4.662;2024-02-14T06:20:25;12.47;81.68
78315;SHT31;68596;52.080;4.662;2024-02-14T06:23:09;12.47;81.63
78315;SHT31;68596;52.080;4.662;2024-02-14T06:25:53;12.49;81.65
78315;SHT31;68596;52.080;4.662;2024-02-14T06:28:38;12.47;81.74
78315;SHT31;68596;52.080;4.662;2024-02-14T06:31:22;12.53;81.73
78315;SHT31;68596;52.080;4.662;2024-02-14T06:34:06;12.51;81.70
78315;SHT31;68596;52.080;4.662;2024-02-14T06:36:55;12.53;81.71
78315;SHT31;68596;52.080;4.662;2024-02-14T06:39:39;12.53;81.71
78315;SHT31;68596;52.080;4.662;2024-02-14T06:42:23;12.53;81.81
78315;SHT31;68596;52.080;4.662;2024-02-14T06:45:08;12.57;81.69
78315;SHT31;68596;52.080;4.662;2024-02-14T06:47:52;12.57;81.65
78315;SHT31;68596;52.080;4.662;2024-02-14T06:50:37;12.60;81.59
78315;SHT31;68596;52.080;4.662;2024-02-14T06:53:21;12.61;81.47
78315;SHT31;68596;52.080;4.662;2024-02-14T06:56:06;12.60;81.41
78315;SHT31;68596;52.080;4.662;2024-02-14T06:58:50;12.61;81.42
78315;SHT31;68596;52.080;4.662;2024-02-14T07:01:37;12.61;81.37
78315;SHT31;68596;52.080;4.662;2024-02-14T07:04:22;12.59;81.43
78315;SHT31;68596;52.080;4.662;2024-02-14T07:07:09;12.59;81.39
78315;SHT31;68596;52.080;4.662;2024-02-14T07:09:53;12.64;81.41
78315;SHT31;68596;52.080;4.662;2024-02-14T07:12:38;12.61;81.34
78315;SHT31;68596;52.080;4.662;2024-02-14T07:15:22;12.63;81.31
78315;SHT31;68596;52.080;4.662;2024-02-14T07:18:09;12.65;81.24
78315;SHT31;68596;52.080;4.662;2024-02-14T07:20:54;12.64;81.26
78315;SHT31;68596;52.080;4.662;2024-02-14T07:23:38;12.67;81.23
78315;SHT31;68596;52.080;4.662;2024-02-14T07:26:22;12.63;81.25
78315;SHT31;68596;52.080;4.662;2024-02-14T07:29:06;12.65;81.32
78315;SHT31;68596;52.080;4.662;2024-02-14T07:31:50;12.65;81.27
78315;SHT31;68596;52.080;4.662;2024-02-14T07:34:38;12.61;81.25
78315;SHT31;68596;52.080;4.662;2024-02-14T07:37:22;12.64;81.32
78315;SHT31;68596;52.080;4.662;2024-02-14T07:40:08;12.64;81.28
78315;SHT31;68596;52.080;4.662;2024-02-14T07:42:52;12.61;81.34
78315;SHT31;68596;52.080;4.662;2024-02-14T07:45:37;12.64;81.36
78315;SHT31;68596;52.080;4.662;2024-02-14T07:48:21;12.63;81.34
78315;SHT31;68596;52.080;4.662;2024-02-14T07:51:07;12.65;81.23
78315;SHT31;68596;52.080;4.662;2024-02-14T07:53:52;12.65;81.28
78315;SHT31;68596;52.080;4.662;2024-02-14T07:56:36;12.68;81.37
78315;SHT31;68596;52.080;4.662;2024-02-14T07:59:21;12.67;81.30
78315;SHT31;68596;52.080;4.662;2024-02-14T08:02:05;12.64;81.34
78315;SHT31;68596;52.080;4.662;2024-02-14T08:04:49;12.63;81.45
78315;SHT31;68596;52.080;4.662;2024-02-14T08:07:33;12.65;81.45
78315;SHT31;68596;52.080;4.662;2024-02-14T08:10:18;12.68;81.54
78315;SHT31;68596;52.080;4.662;2024-02-14T08:13:02;12.67;81.56
78315;SHT31;68596;52.080;4.662;2024-02-14T08:15:48;12.67;81.57
78315;SHT31;68596;52.080;4.662;2024-02-14T08:18:32;12.68;81.63
78315;SHT31;68596;52.080;4.662;2024-02-14T08:21:16;12.70;81.63
78315;SHT31;68596;52.080;4.662;2024-02-14T08:24:00;12.74;81.58
78315;SHT31;68596;52.080;4.662;2024-02-14T08:26:44;12.77;81.47
78315;SHT31;68596;52.080;4.662;2024-02-14T08:29:28;12.80;81.34
78315;SHT31;68596;52.080;4.662;2024-02-14T08:32:12;12.80;81.24
78315;SHT31;68596;52.080;4.662;2024-02-14T08:34:56;12.84;81.20
78315;SHT31;68596;52.080;4.662;2024-02-14T08:37:40;12.84;81.12
78315;SHT31;68596;52.080;4.662;2024-02-14T08:40:24;12.85;81.06
78315;SHT31;68596;52.080;4.662;2024-02-14T08:43:08;12.85;80.96
78315;SHT31;68596;52.080;4.662;2024-02-14T08:45:52;12.87;80.98
78315;SHT31;68596;52.080;4.662;2024-02-14T08:48:37;12.84;81.04
78315;SHT31;68596;52.080;4.662;2024-02-14T08:51:25;12.80;81.17
78315;SHT31;68596;52.080;4.662;2024-02-14T08:54:10;12.76;81.27
78315;SHT31;68596;52.080;4.662;2024-02-14T08:56:55;12.79;81.37
78315;SHT31;68596;52.080;4.662;2024-02-14T08:59:42;12.77;81.31
78315;SHT31;68596;52.080;4.662;2024-02-14T09:02:28;12.76;81.38
78315;SHT31;68596;52.080;4.662;2024-02-14T09:05:13;12.77;81.43
78315;SHT31;68596;52.080;4.662;2024-02-14T09:07:57;12.76;81.44
78315;SHT31;68596;52.080;4.662;2024-02-14T09:10:41;12.76;81.60
78315;SHT31;68596;52.080;4.662;2024-02-14T09:13:26;12.76;81.62
78315;SHT31;68596;52.080;4.662;2024-02-14T09:16:11;12.79;81.64
78315;SHT31;68596;52.080;4.662;2024-02-14T09:18:55;12.80;81.64
78315;SHT31;68596;52.080;4.662;2024-02-14T09:21:40;12.80;81.66
78315;SHT31;68596;52.080;4.662;2024-02-14T09:24:24;12.83;81.69
78315;SHT31;68596;52.080;4.662;2024-02-14T09:27:08;12.85;81.57
78315;SHT31;68596;52.080;4.662;2024-02-14T09:29:52;12.88;81.54
78315;SHT31;68596;52.080;4.662;2024-02-14T09:32:37;12.87;81.58
78315;SHT31;68596;52.080;4.662;2024-02-14T09:35:20;12.88;81.65
78315;SHT31;68596;52.080;4.662;2024-02-14T09:38:05;12.91;81.63
78315;SHT31;68596;52.080;4.662;2024-02-14T09:40:53;12.92;81.62
78315;SHT31;68596;52.080;4.662;2024-02-14T09:43:44;12.94;81.58
78315;SHT31;68596;52.080;4.662;2024-02-14T09:46:29;12.92;81.62
78315;SHT31;68596;52.080;4.662;2024-02-14T09:49:16;12.95;81.64
78315;SHT31;68596;52.080;4.662;2024-02-14T09:52:02;12.97;81.58
78315;SHT31;68596;52.080;4.662;2024-02-14T09:54:48;13.00;81.59
78315;SHT31;68596;52.080;4.662;2024-02-14T09:57:32;13.00;81.58
78315;SHT31;68596;52.080;4.662;2024-02-14T10:00:17;13.00;81.68
78315;SHT31;68596;52.080;4.662;2024-02-14T10:03:05;13.02;81.68
78315;SHT31;68596;52.080;4.662;2024-02-14T10:05:50;13.04;81.77
78315;SHT31;68596;52.080;4.662;2024-02-14T10:08:35;13.08;81.83
78315;SHT31;68596;52.080;4.662;2024-02-14T10:11:20;13.11;81.86
78315;SHT31;68596;52.080;4.662;2024-02-14T10:14:09;13.11;81.69
78315;SHT31;68596;52.080;4.662;2024-02-14T10:16:55;13.14;81.72
78315;SHT31;68596;52.080;4.662;2024-02-14T10:19:39;13.18;81.66
78315;SHT31;68596;52.080;4.662;2024-02-14T10:22:24;13.25;81.66
78315;SHT31;68596;52.080;4.662;2024-02-14T10:25:09;13.29;81.58
78315;SHT31;68596;52.080;4.662;2024-02-14T10:27:53;13.32;81.56
78315;SHT31;68596;52.080;4.662;2024-02-14T10:30:38;13.34;81.52
78315;SHT31;68596;52.080;4.662;2024-02-14T10:33:27;13.34;81.39
78315;SHT31;68596;52.080;4.662;2024-02-14T10:36:14;13.32;81.36
78315;SHT31;68596;52.080;4.662;2024-02-14T10:38:58;13.35;81.31
78315;SHT31;68596;52.080;4.662;2024-02-14T10:41:43;13.36;81.21
78315;SHT31;68596;52.080;4.662;2024-02-14T10:44:27;13.38;81.18
78315;SHT31;68596;52.080;4.662;2024-02-14T10:47:14;13.38;81.16
78315;SHT31;68596;52.080;4.662;2024-02-14T10:50:07;13.35;81.11
78315;SHT31;68596;52.080;4.662;2024-02-14T10:52:57;13.38;81.13
78315;SHT31;68596;52.080;4.662;2024-02-14T10:55:49;13.38;81.23
78315;SHT31;68596;52.080;4.662;2024-02-14T10:58:34;13.39;81.22
78315;SHT31;68596;52.080;4.662;2024-02-14T11:01:19;13.42;81.19
78315;SHT31;68596;52.080;4.662;2024-02-14T11:04:04;13.42;81.15
78315;SHT31;68596;52.080;4.662;2024-02-14T11:06:53;13.44;81.21
78315;SHT31;68596;52.080;4.662;2024-02-14T11:09:42;13.44;81.31
78315;SHT31;68596;52.080;4.662;2024-02-14T11:12:26;13.48;81.32
78315;SHT31;68596;52.080;4.662;2024-02-14T11:15:19;13.51;81.36
78315;SHT31;68596;52.080;4.662;2024-02-14T11:18:05;13.52;81.34
78315;SHT31;68596;52.080;4.662;2024-02-14T11:20:51;13.58;81.31
78315;SHT31;68596;52.080;4.662;2024-02-14T11:23:35;13.58;81.29
78315;SHT31;68596;52.080;4.662;2024-02-14T11:26:19;13.59;81.29
78315;SHT31;68596;52.080;4.662;2024-02-14T11:29:04;13.56;81.26
78315;SHT31;68596;52.080;4.662;2024-02-14T11:31:48;13.62;81.17
78315;SHT31;68596;52.080;4.662;2024-02-14T11:34:32;13.62;81.07
78315;SHT31;68596;52.080;4.662;2024-02-14T11:37:19;13.63;81.15
78315;SHT31;68596;52.080;4.662;2024-02-14T11:40:05;13.59;81.18
78315;SHT31;68596;52.080;4.662;2024-02-14T11:42:51;13.62;81.17
78315;SHT31;68596;52.080;4.662;2024-02-14T11:45:35;13.59;81.03
78315;SHT31;68596;52.080;4.662;2024-02-14T11:48:23;13.61;81.02
78315;SHT31;68596;52.080;4.662;2024-02-14T11:51:09;13.56;81.10
78315;SHT31;68596;52.080;4.662;2024-02-14T11:53:54;13.53;81.15
78315;SHT31;68596;52.080;4.662;2024-02-14T11:56:38;13.52;81.32
78315;SHT31;68596;52.080;4.662;2024-02-14T11:59:23;13.55;81.27
78315;SHT31;68596;52.080;4.662;2024-02-14T12:02:07;13.55;81.32
78315;SHT31;68596;52.080;4.662;2024-02-14T12:04:52;13.55;81.34
78315;SHT31;68596;52.080;4.662;2024-02-14T12:07:38;13.56;81.35
78315;SHT31;68596;52.080;4.662;2024-02-14T12:10:22;13.56;81.31
78315;SHT31;68596;52.080;4.662;2024-02-14T12:13:19;13.59;81.32
78315;SHT31;68596;52.080;4.662;2024-02-14T12:16:06;13.55;81.43
78315;SHT31;68596;52.080;4.662;2024-02-14T12:19:03;13.59;81.40
78315;SHT31;68596;52.080;4.662;2024-02-14T12:21:50;13.61;81.30
78315;SHT31;68596;52.080;4.662;2024-02-14T12:24:34;13.61;81.33
78315;SHT31;68596;52.080;4.662;2024-02-14T12:27:19;13.65;81.25
78315;SHT31;68596;52.080;4.662;2024-02-14T12:30:04;13.63;81.19
78315;SHT31;68596;52.080;4.662;2024-02-14T12:32:58;13.63;81.23
78315;SHT31;68596;52.080;4.662;2024-02-14T12:35:54;13.62;81.27
78315;SHT31;68596;52.080;4.662;2024-02-14T12:38:38;13.62;81.34
78315;SHT31;68596;52.080;4.662;2024-02-14T12:41:23;13.62;81.37
78315;SHT31;68596;52.080;4.662;2024-02-14T12:44:09;13.65;81.42
78315;SHT31;68596;52.080;4.662;2024-02-14T12:46:53;13.66;81.36
78315;SHT31;68596;52.080;4.662;2024-02-14T12:49:38;13.67;81.35
78315;SHT31;68596;52.080;4.662;2024-02-14T12:52:22;13.66;81.41
78315;SHT31;68596;52.080;4.662;2024-02-14T12:55:07;13.63;81.48
78315;SHT31;68596;52.080;4.662;2024-02-14T12:57:52;13.62;81.61
78315;SHT31;68596;52.080;4.662;2024-02-14T13:00:37;13.66;81.55
78315;SHT31;68596;52.080;4.662;2024-02-14T13:03:22;13.62;81.62
78315;SHT31;68596;52.080;4.662;2024-02-14T13:06:06;13.66;81.64
78315;SHT31;68596;52.080;4.662;2024-02-14T13:08:51;13.58;81.95
78315;SHT31;68596;52.080;4.662;2024-02-14T13:11:35;13.58;81.98
78315;SHT31;68596;52.080;4.662;2024-02-14T13:14:19;13.59;82.06
78315;SHT31;68596;52.080;4.662;2024-02-14T13:17:03;13.62;82.02
78315;SHT31;68596;52.080;4.662;2024-02-14T13:19:48;13.66;82.03
78315;SHT31;68596;52.080;4.662;2024-02-14T13:22:33;13.69;81.93
78315;SHT31;68596;52.080;4.662;2024-02-14T13:25:17;13.69;81.93
78315;SHT31;68596;52.080;4.662;2024-02-14T13:28:01;13.70;82.17
78315;SHT31;68596;52.080;4.662;2024-02-14T13:30:45;13.69;82.18
78315;SHT31;68596;52.080;4.662;2024-02-14T13:33:32;13.72;82.16
78315;SHT31;68596;52.080;4.662;2024-02-14T13:36:16;13.73;82.21
78315;SHT31;68596;52.080;4.662;2024-02-14T13:39:00;13.70;82.37
78315;SHT31;68596;52.080;4.662;2024-02-14T13:41:45;13.76;82.30
78315;SHT31;68596;52.080;4.662;2024-02-14T13:44:29;13.79;82.19
78315;SHT31;68596;52.080;4.662;2024-02-14T13:47:17;13.77;82.21
78315;SHT31;68596;52.080;4.662;2024-02-14T13:50:02;13.76;82.24
78315;SHT31;68596;52.080;4.662;2024-02-14T13:52:47;13.82;82.24
78315;SHT31;68596;52.080;4.662;2024-02-14T13:55:31;13.80;82.20
78315;SHT31;68596;52.080;4.662;2024-02-14T13:58:15;13.83;82.32
78315;SHT31;68596;52.080;4.662;2024-02-14T14:01:01;13.86;82.24
78315;SHT31;68596;52.080;4.662;2024-02-14T14:03:45;13.87;82.23
78315;SHT31;68596;52.080;4.662;2024-02-14T14:06:31;13.87;82.26
78315;SHT31;68596;52.080;4.662;2024-02-14T14:09:15;13.89;82.26
78315;SHT31;68596;52.080;4.662;2024-02-14T14:11:59;13.89;82.38
78315;SHT31;68596;52.080;4.662;2024-02-14T14:14:43;13.89;82.34
78315;SHT31;68596;52.080;4.662;2024-02-14T14:17:27;13.91;82.32
78315;SHT31;68596;52.080;4.662;2024-02-14T14:20:11;13.95;82.26
78315;SHT31;68596;52.080;4.662;2024-02-14T14:22:55;13.95;82.18
78315;SHT31;68596;52.080;4.662;2024-02-14T14:25:40;13.96;82.10
78315;SHT31;68596;52.080;4.662;2024-02-14T14:28:24;13.93;82.24
78315;SHT31;68596;52.080;4.662;2024-02-14T14:31:08;13.89;82.33
78315;SHT31;68596;52.080;4.662;2024-02-14T14:33:54;13.91;82.25
78315;SHT31;68596;52.080;4.662;2024-02-14T14:36:38;13.85;82.28
78315;SHT31;68596;52.080;4.662;2024-02-14T14:39:24;13.90;82.29
78315;SHT31;68596;52.080;4.662;2024-02-14T14:42:09;13.86;82.39
78315;SHT31;68596;52.080;4.662;2024-02-14T14:44:53;13.89;82.39
78315;SHT31;68596;52.080;4.662;2024-02-14T14:47:37;13.83;82.46
78315;SHT31;68596;52.080;4.662;2024-02-14T14:50:21;13.86;82.43
78315;SHT31;68596;52.080;4.662;2024-02-14T14:53:05;13.89;82.40
78315;SHT31;68596;52.080;4.662;2024-02-14T14:55:57;13.89;82.42
78315;SHT31;68596;52.080;4.662;2024-02-14T14:58:41;13.89;82.36
78315;SHT31;68596;52.080;4.662;2024-02-14T15:01:26;13.90;82.31
78315;SHT31;68596;52.080;4.662;2024-02-14T15:04:11;13.89;82.29
78315;SHT31;68596;52.080;4.662;2024-02-14T15:06:55;13.93;82.24
78315;SHT31;68596;52.080;4.662;2024-02-14T15:09:39;13.90;82.17
78315;SHT31;68596;52.080;4.662;2024-02-14T15:12:23;13.90;82.15
78315;SHT31;68596;52.080;4.662;2024-02-14T15:15:09;13.89;82.18
78315;SHT31;68596;52.080;4.662;2024-02-14T15:17:54;13.82;82.18
78315;SHT31;68596;52.080;4.662;2024-02-14T15:20:38;13.82;82.31
78315;SHT31;68596;52.080;4.662;2024-02-14T15:23:22;13.82;82.30
78315;SHT31;68596;52.080;4.662;2024-02-14T15:26:06;13.82;82.27
78315;SHT31;68596;52.080;4.662;2024-02-14T15:28:56;13.77;82.29
78315;SHT31;68596;52.080;4.662;2024-02-14T15:32:01;13.79;82.36
78315;SHT31;68596;52.080;4.662;2024-02-14T15:35:05;13.82;82.29
78315;SHT31;68596;52.080;4.662;2024-02-14T15:37:49;13.77;82.19
78315;SHT31;68596;52.080;4.662;2024-02-14T15:40:36;13.80;82.15
78315;SHT31;68596;52.080;4.662;2024-02-14T15:43:21;13.73;82.15
78315;SHT31;68596;52.080;4.662;2024-02-14T15:46:05;13.72;82.25
78315;SHT31;68596;52.080;4.662;2024-02-14T15:48:50;13.72;82.32
78315;SHT31;68596;52.080;4.662;2024-02-14T15:51:35;13.75;82.24
78315;SHT31;68596;52.080;4.662;2024-02-14T15:54:19;13.75;82.16
78315;SHT31;68596;52.080;4.662;2024-02-14T15:57:04;13.76;82.16
78315;SHT31;68596;52.080;4.662;2024-02-14T15:59:48;13.72;82.09
78315;SHT31;68596;52.080;4.662;2024-02-14T16:02:32;13.73;82.10
78315;SHT31;68596;52.080;4.662;2024-02-14T16:05:16;13.72;82.12
78315;SHT31;68596;52.080;4.662;2024-02-14T16:08:01;13.70;82.19
78315;SHT31;68596;52.080;4.662;2024-02-14T16:10:45;13.67;82.20
78315;SHT31;68596;52.080;4.662;2024-02-14T16:13:31;13.73;82.22
78315;SHT31;68596;52.080;4.662;2024-02-14T16:16:15;13.75;82.18
78315;SHT31;68596;52.080;4.662;2024-02-14T16:18:59;13.76;82.07
78315;SHT31;68596;52.080;4.662;2024-02-14T16:21:43;13.75;82.10
78315;SHT31;68596;52.080;4.662;2024-02-14T16:24:27;13.76;82.06
78315;SHT31;68596;52.080;4.662;2024-02-14T16:27:13;13.76;82.06
78315;SHT31;68596;52.080;4.662;2024-02-14T16:29:59;13.79;81.99
78315;SHT31;68596;52.080;4.662;2024-02-14T16:32:45;13.79;81.89
78315;SHT31;68596;52.080;4.662;2024-02-14T16:35:31;13.79;81.87
78315;SHT31;68596;52.080;4.662;2024-02-14T16:38:15;13.80;81.95
78315;SHT31;68596;52.080;4.662;2024-02-14T16:40:59;13.80;81.87
78315;SHT31;68596;52.080;4.662;2024-02-14T16:43:44;13.80;81.91
78315;SHT31;68596;52.080;4.662;2024-02-14T16:46:28;13.79;81.88
78315;SHT31;68596;52.080;4.662;2024-02-14T16:49:12;13.82;81.83
78315;SHT31;68596;52.080;4.662;2024-02-14T16:51:57;13.82;81.73
78315;SHT31;68596;52.080;4.662;2024-02-14T16:54:41;13.80;81.76
78315;SHT31;68596;52.080;4.662;2024-02-14T16:57:25;13.76;81.76
78315;SHT31;68596;52.080;4.662;2024-02-14T17:00:09;13.77;81.74
78315;SHT31;68596;52.080;4.662;2024-02-14T17:02:54;13.76;81.66
78315;SHT31;68596;52.080;4.662;2024-02-14T17:05:38;13.75;81.75
78315;SHT31;68596;52.080;4.662;2024-02-14T17:08:24;13.73;81.80
78315;SHT31;68596;52.080;4.662;2024-02-14T17:11:13;13.75;81.81
78315;SHT31;68596;52.080;4.662;2024-02-14T17:13:58;13.76;81.79
78315;SHT31;68596;52.080;4.662;2024-02-14T17:16:46;13.75;81.80
78315;SHT31;68596;52.080;4.662;2024-02-14T17:19:33;13.76;81.84
78315;SHT31;68596;52.080;4.662;2024-02-14T17:22:16;13.75;81.88